St. Day, United Kingdom
Current Conditions -  °F | °C
As of 11:50 AM on Sunday 21 Dec 2014 (Local Time) from EGDR Reporting Station
Light Rain Light Rain  
Wind Chill: 50°   Ceiling: 700
Heat Index: 50°   Visibility: 3mi
Dew Point: 50°   Wind: 21mph
Humidity: 100%   Direction: 230°SW
Pressure: 30.42"   Gusts: 33mph
Location:  50.24°N, 5.19°W
Report Text: EGDR 211150Z 23018G29KT 5000 -RADZ FEW005 BKN007 OVC010 10/10 Q1030 GRN BECMG 6000 -DZ SCT006 YLO1
Loading
Personal Weather Stations






























Interactive Weather Map New forecast layout! Learn more

10-Day Weather Forecast

Advertisements
Track Severe Weather on mobile